createdAt,value
2022-12-31T00:00:15.436Z,62.69
2022-12-31T00:02:41.972Z,62.96
2022-12-31T00:05:08.460Z,62.68
2022-12-31T00:10:00.331Z,63.25
2022-12-31T00:12:26.742Z,63.56
2022-12-31T00:14:53.198Z,62.10
2022-12-31T00:17:19.801Z,62.13
2022-12-31T00:19:46.789Z,61.60
2022-12-31T00:22:13.111Z,62.66
2022-12-31T00:24:39.588Z,61.47
2022-12-31T00:27:05.989Z,62.34
2022-12-31T00:29:32.361Z,61.24
2022-12-31T00:31:58.757Z,61.18
2022-12-31T00:34:25.154Z,61.46
2022-12-31T00:36:51.505Z,61.21
2022-12-31T00:39:19.981Z,61.80
2022-12-31T00:41:46.382Z,62.51
2022-12-31T00:44:12.913Z,61.95
2022-12-31T00:49:04.554Z,62.60
2022-12-31T00:51:30.998Z,61.72
2022-12-31T00:53:59.948Z,61.99
2022-12-31T00:56:28.333Z,62.50
2022-12-31T00:58:54.845Z,62.06
2022-12-31T01:01:21.240Z,62.72
2022-12-31T01:03:47.652Z,63.37
2022-12-31T01:06:14.086Z,63.65
2022-12-31T01:08:40.424Z,64.87
2022-12-31T01:11:06.773Z,65.81
2022-12-31T01:13:33.111Z,66.48
2022-12-31T01:15:59.486Z,67.31
2022-12-31T01:18:26.002Z,67.58
2022-12-31T01:20:52.511Z,67.71
2022-12-31T01:23:18.906Z,68.11
2022-12-31T01:25:45.298Z,67.94
2022-12-31T01:28:11.693Z,67.95
2022-12-31T01:30:38.110Z,67.74
2022-12-31T01:33:04.488Z,68.35
2022-12-31T01:35:31.860Z,68.54
2022-12-31T01:37:58.242Z,68.07
2022-12-31T01:40:24.624Z,68.43
2022-12-31T01:42:53.974Z,68.39
2022-12-31T01:45:20.358Z,68.42
2022-12-31T01:47:46.747Z,69.00
2022-12-31T01:50:13.192Z,69.54
2022-12-31T01:52:39.561Z,69.10
2022-12-31T01:55:06.072Z,70.04
2022-12-31T01:57:32.452Z,70.44
2022-12-31T01:59:59.104Z,71.02
2022-12-31T02:02:25.518Z,70.92
2022-12-31T02:04:51.940Z,71.09
2022-12-31T02:07:20.565Z,71.71
2022-12-31T02:09:47.134Z,70.62
2022-12-31T02:12:13.558Z,71.41
2022-12-31T02:14:44.358Z,71.89
2022-12-31T02:17:12.078Z,71.57
2022-12-31T02:19:38.446Z,71.22
2022-12-31T02:22:05.387Z,71.33
2022-12-31T02:24:31.936Z,71.74
2022-12-31T02:26:58.304Z,71.34
2022-12-31T02:29:27.295Z,71.60
2022-12-31T02:31:53.944Z,71.27
2022-12-31T02:34:20.370Z,71.84
2022-12-31T02:36:46.732Z,71.43
2022-12-31T02:39:13.088Z,71.51
2022-12-31T02:41:39.518Z,71.58
2022-12-31T02:44:05.910Z,71.41
2022-12-31T02:46:32.613Z,71.92
2022-12-31T02:48:58.952Z,72.30
2022-12-31T02:51:26.656Z,72.93
2022-12-31T02:53:53.267Z,72.72
2022-12-31T02:56:19.724Z,72.94
2022-12-31T02:58:46.123Z,72.98
2022-12-31T03:01:12.877Z,73.57
2022-12-31T03:03:39.378Z,73.82
2022-12-31T03:06:05.850Z,73.89
2022-12-31T03:08:32.190Z,73.64
2022-12-31T03:10:59.676Z,73.89
2022-12-31T03:13:26.052Z,74.10
2022-12-31T03:15:52.541Z,73.89
2022-12-31T03:18:21.201Z,73.84
2022-12-31T03:20:47.544Z,73.88
2022-12-31T03:23:14.000Z,74.09
2022-12-31T03:25:40.638Z,74.22
2022-12-31T03:28:07.035Z,74.75
2022-12-31T03:30:33.385Z,75.47
2022-12-31T03:32:59.746Z,75.24
2022-12-31T03:35:26.292Z,75.10
2022-12-31T03:37:52.626Z,75.14
2022-12-31T03:40:19.054Z,74.85
2022-12-31T03:42:45.442Z,74.88
2022-12-31T03:45:11.863Z,75.32
2022-12-31T03:47:38.350Z,75.57
2022-12-31T03:50:04.737Z,75.57
2022-12-31T03:52:31.310Z,75.44
2022-12-31T03:54:57.653Z,75.25
2022-12-31T03:57:24.032Z,74.91
2022-12-31T03:59:50.724Z,75.32
2022-12-31T04:02:17.388Z,75.18
2022-12-31T04:04:44.032Z,74.66
2022-12-31T04:07:10.458Z,75.87
2022-12-31T04:09:37.970Z,75.93
2022-12-31T04:12:04.360Z,76.21
2022-12-31T04:14:30.998Z,76.12
2022-12-31T04:16:57.463Z,75.50
2022-12-31T04:19:24.095Z,75.78
2022-12-31T04:21:51.895Z,74.94
2022-12-31T04:24:18.357Z,75.24
2022-12-31T04:26:44.819Z,74.96
2022-12-31T04:29:13.268Z,74.85
2022-12-31T04:31:39.645Z,74.21
2022-12-31T04:34:06.081Z,74.62
2022-12-31T04:36:32.667Z,74.67
2022-12-31T04:38:59.181Z,74.55
2022-12-31T04:41:25.621Z,74.46
2022-12-31T04:43:52.255Z,73.83
2022-12-31T04:46:18.630Z,74.84
2022-12-31T04:48:45.199Z,74.79
2022-12-31T04:51:11.747Z,75.51
2022-12-31T04:53:39.220Z,74.75
2022-12-31T04:56:07.765Z,75.18
2022-12-31T04:58:34.138Z,74.61
2022-12-31T05:01:01.090Z,75.15
2022-12-31T05:03:27.831Z,75.07
2022-12-31T05:05:54.279Z,75.04
2022-12-31T05:08:20.889Z,75.25
2022-12-31T05:10:47.233Z,75.55
2022-12-31T05:13:13.614Z,75.55
2022-12-31T05:15:42.474Z,76.23
2022-12-31T05:18:10.947Z,75.54
2022-12-31T05:20:37.293Z,75.65
2022-12-31T05:23:03.619Z,76.05
2022-12-31T05:25:30.007Z,76.03
2022-12-31T05:27:56.374Z,76.19
2022-12-31T05:30:22.738Z,76.12
2022-12-31T05:32:51.380Z,75.92
2022-12-31T05:35:18.115Z,75.65
2022-12-31T05:37:44.815Z,75.91
2022-12-31T05:40:11.223Z,75.97
2022-12-31T05:42:37.656Z,76.20
2022-12-31T05:45:03.999Z,76.89
2022-12-31T05:47:30.376Z,77.04
2022-12-31T05:49:56.813Z,76.58
2022-12-31T05:52:23.375Z,76.66
2022-12-31T05:54:49.804Z,76.58
2022-12-31T05:57:16.342Z,76.69
2022-12-31T05:59:42.869Z,76.07
2022-12-31T06:02:09.368Z,76.19
2022-12-31T06:04:35.766Z,76.23
2022-12-31T06:07:02.399Z,76.72
2022-12-31T06:09:28.824Z,75.53
2022-12-31T06:11:55.277Z,76.27
2022-12-31T06:14:21.871Z,76.33
2022-12-31T06:16:48.472Z,76.47
2022-12-31T06:19:14.933Z,76.44
2022-12-31T06:21:41.303Z,76.60
2022-12-31T06:24:07.687Z,76.26
2022-12-31T06:26:34.182Z,77.19
2022-12-31T06:29:00.646Z,75.46
2022-12-31T06:31:27.047Z,76.18
2022-12-31T06:33:55.542Z,77.06
2022-12-31T06:36:25.091Z,76.85
2022-12-31T06:38:51.503Z,77.13
2022-12-31T06:41:17.928Z,77.71
2022-12-31T06:43:44.993Z,77.39
2022-12-31T06:46:11.355Z,77.75
2022-12-31T06:48:37.742Z,78.05
2022-12-31T06:51:04.097Z,78.66
2022-12-31T06:53:30.486Z,78.11
2022-12-31T06:55:56.875Z,77.95
2022-12-31T06:58:23.384Z,77.48
2022-12-31T07:00:49.878Z,77.54
2022-12-31T07:03:16.431Z,76.98
2022-12-31T07:05:43.192Z,77.12
2022-12-31T07:08:09.888Z,77.69
2022-12-31T07:10:36.821Z,77.89
2022-12-31T07:13:03.418Z,78.06
2022-12-31T07:15:30.126Z,78.30
2022-12-31T07:17:58.735Z,78.04
2022-12-31T07:20:25.431Z,77.46
2022-12-31T07:22:51.827Z,77.36
2022-12-31T07:25:20.758Z,78.15
2022-12-31T07:27:47.216Z,78.79
2022-12-31T07:30:13.987Z,77.05
2022-12-31T07:32:40.464Z,77.09
2022-12-31T07:35:07.161Z,77.94
2022-12-31T07:37:33.515Z,77.76
2022-12-31T07:39:59.995Z,77.83
2022-12-31T07:42:26.322Z,77.49
2022-12-31T07:44:52.684Z,77.82
2022-12-31T07:47:20.081Z,77.46
2022-12-31T07:49:46.655Z,78.12
2022-12-31T07:52:13.056Z,77.63
2022-12-31T07:54:39.523Z,77.83
2022-12-31T07:57:05.946Z,78.23
2022-12-31T07:59:32.503Z,78.23
2022-12-31T08:02:01.478Z,78.68
2022-12-31T08:04:28.215Z,78.57
2022-12-31T08:06:54.757Z,78.59
2022-12-31T08:09:23.743Z,78.66
2022-12-31T08:11:50.183Z,78.45
2022-12-31T08:14:16.531Z,78.38
2022-12-31T08:16:45.336Z,78.64
2022-12-31T08:19:11.708Z,78.65
2022-12-31T08:21:39.170Z,78.24
2022-12-31T08:24:05.634Z,78.28
2022-12-31T08:26:32.189Z,78.45
2022-12-31T08:28:58.587Z,78.87
2022-12-31T08:31:25.182Z,78.34
2022-12-31T08:33:51.596Z,77.87
2022-12-31T08:36:20.244Z,78.61
2022-12-31T08:38:46.820Z,78.60
2022-12-31T08:41:15.242Z,78.64
2022-12-31T08:43:41.813Z,78.37
2022-12-31T08:46:08.225Z,78.16
2022-12-31T08:48:34.827Z,78.35
2022-12-31T08:51:01.416Z,77.64
2022-12-31T08:53:27.762Z,76.97
2022-12-31T08:55:55.016Z,77.21
2022-12-31T08:58:21.390Z,77.36
2022-12-31T09:00:47.868Z,77.46
2022-12-31T09:03:14.323Z,77.08
2022-12-31T09:05:40.718Z,77.25
2022-12-31T09:08:07.116Z,77.22
2022-12-31T09:10:35.910Z,77.29
2022-12-31T09:13:02.278Z,77.42
2022-12-31T09:15:28.722Z,77.22
2022-12-31T09:17:56.303Z,76.71
2022-12-31T09:20:23.192Z,76.35
2022-12-31T09:22:49.606Z,75.99
2022-12-31T09:25:20.359Z,76.15
2022-12-31T09:27:47.131Z,76.23
2022-12-31T09:30:13.495Z,75.94
2022-12-31T09:32:39.861Z,75.15
2022-12-31T09:35:06.608Z,74.48
2022-12-31T09:37:33.327Z,74.01
2022-12-31T09:39:59.669Z,73.87
2022-12-31T09:42:26.194Z,73.82
2022-12-31T09:44:52.624Z,73.06
2022-12-31T09:47:19.202Z,73.30
2022-12-31T09:49:45.606Z,72.76
2022-12-31T09:52:13.986Z,72.74
2022-12-31T09:54:40.420Z,72.56
2022-12-31T09:57:06.944Z,72.66
2022-12-31T09:59:33.687Z,72.48
2022-12-31T10:02:00.333Z,71.27
2022-12-31T10:04:26.854Z,71.75
2022-12-31T10:06:53.235Z,71.60
2022-12-31T10:09:19.616Z,71.36
2022-12-31T10:11:46.077Z,71.56
2022-12-31T10:14:12.496Z,70.50
2022-12-31T10:16:39.237Z,70.41
2022-12-31T10:19:05.642Z,70.25
2022-12-31T10:21:31.988Z,70.15
2022-12-31T10:23:58.362Z,69.79
2022-12-31T10:26:24.775Z,69.28
2022-12-31T10:28:51.180Z,69.74
2022-12-31T10:31:17.658Z,69.92
2022-12-31T10:33:44.306Z,69.19
2022-12-31T10:36:10.719Z,69.04
2022-12-31T10:38:37.074Z,68.55
2022-12-31T10:41:03.744Z,68.69
2022-12-31T10:43:30.139Z,68.60
2022-12-31T10:45:56.561Z,68.61
2022-12-31T10:48:23.057Z,68.21
2022-12-31T10:50:49.786Z,67.72
2022-12-31T10:53:16.245Z,67.47
2022-12-31T10:55:42.719Z,66.58
2022-12-31T10:58:09.091Z,66.88
2022-12-31T11:00:35.449Z,65.87
2022-12-31T11:03:01.942Z,65.99
2022-12-31T11:05:28.409Z,65.74
2022-12-31T11:07:54.835Z,65.25
2022-12-31T11:10:21.179Z,65.34
2022-12-31T11:12:47.670Z,65.11
2022-12-31T11:15:14.030Z,64.44
2022-12-31T11:17:40.420Z,64.54
2022-12-31T11:20:06.951Z,64.03
2022-12-31T11:22:33.330Z,63.98
2022-12-31T11:24:59.836Z,63.66
2022-12-31T11:27:26.236Z,63.21
2022-12-31T11:29:52.621Z,62.87
2022-12-31T11:32:18.973Z,62.91
2022-12-31T11:34:45.407Z,61.95
2022-12-31T11:37:11.792Z,62.76
2022-12-31T11:39:38.321Z,61.61
2022-12-31T11:42:05.683Z,62.21
2022-12-31T11:44:32.056Z,61.61
2022-12-31T11:46:58.393Z,62.20
2022-12-31T11:49:24.725Z,61.66
2022-12-31T11:51:51.314Z,61.94
2022-12-31T11:54:17.781Z,61.73
2022-12-31T11:56:44.187Z,62.49
2022-12-31T11:59:15.709Z,62.42
2022-12-31T12:01:45.738Z,62.55
2022-12-31T12:04:12.250Z,61.72
2022-12-31T12:06:38.653Z,62.05
2022-12-31T12:09:05.040Z,62.05
2022-12-31T12:11:31.399Z,61.92
2022-12-31T12:13:57.958Z,62.23
2022-12-31T12:16:24.486Z,62.27
2022-12-31T12:18:50.921Z,62.09
2022-12-31T12:21:17.553Z,62.50
2022-12-31T12:23:43.959Z,62.52
2022-12-31T12:26:10.415Z,63.63
2022-12-31T12:28:42.409Z,63.42
2022-12-31T12:31:10.821Z,64.13
2022-12-31T12:33:39.357Z,66.07
2022-12-31T12:36:05.733Z,65.44
2022-12-31T12:38:32.144Z,64.86
2022-12-31T12:40:58.557Z,64.91
2022-12-31T12:43:24.932Z,65.21
2022-12-31T12:45:52.661Z,65.39
2022-12-31T12:48:19.090Z,65.08
2022-12-31T12:50:45.662Z,65.68
2022-12-31T12:53:12.030Z,64.70
2022-12-31T12:55:38.393Z,64.25
2022-12-31T12:58:04.810Z,65.26
2022-12-31T13:00:31.243Z,65.08
2022-12-31T13:02:57.778Z,64.69
2022-12-31T13:05:28.081Z,64.47
2022-12-31T13:07:54.879Z,64.80
2022-12-31T13:10:21.279Z,64.18
2022-12-31T13:13:22.662Z,64.34
2022-12-31T13:15:34.051Z,65.06
2022-12-31T13:18:02.233Z,64.70
2022-12-31T13:20:28.879Z,64.33
2022-12-31T13:22:55.267Z,64.10
2022-12-31T13:25:21.677Z,65.93
2022-12-31T13:27:48.278Z,64.91
2022-12-31T13:30:15.568Z,64.90
2022-12-31T13:32:42.132Z,64.00
2022-12-31T13:35:08.678Z,64.59
2022-12-31T13:37:35.052Z,64.85
2022-12-31T13:40:04.188Z,65.11
2022-12-31T13:42:30.533Z,65.12
2022-12-31T13:44:57.114Z,64.91
2022-12-31T13:47:23.497Z,65.88
2022-12-31T13:49:49.904Z,65.58
2022-12-31T13:52:16.255Z,66.07
2022-12-31T13:54:42.653Z,65.53
2022-12-31T13:57:09.120Z,65.70
2022-12-31T13:59:35.528Z,66.13
2022-12-31T14:02:02.107Z,66.26
2022-12-31T14:04:28.856Z,66.86
2022-12-31T14:06:55.233Z,66.78
2022-12-31T14:09:21.596Z,67.11
2022-12-31T14:11:48.031Z,67.38
2022-12-31T14:14:14.427Z,67.88
2022-12-31T14:16:40.996Z,67.46
2022-12-31T14:19:07.484Z,68.19
2022-12-31T14:21:33.835Z,68.13
2022-12-31T14:24:00.231Z,68.04
2022-12-31T14:26:26.607Z,67.78
2022-12-31T14:28:52.982Z,67.80
2022-12-31T14:31:20.112Z,66.16
2022-12-31T14:33:46.550Z,66.92
2022-12-31T14:36:12.895Z,67.99
2022-12-31T14:38:39.253Z,66.63
2022-12-31T14:41:06.087Z,67.22
2022-12-31T14:43:32.529Z,67.73
2022-12-31T14:45:59.187Z,68.47
2022-12-31T14:48:25.854Z,68.50
2022-12-31T14:50:52.440Z,69.22
2022-12-31T14:53:18.844Z,69.62
2022-12-31T14:55:45.682Z,69.24
2022-12-31T14:58:28.604Z,68.92
2022-12-31T15:00:55.815Z,68.64
2022-12-31T15:03:22.364Z,69.38
2022-12-31T15:05:50.056Z,69.84
2022-12-31T15:08:16.801Z,69.28
2022-12-31T15:10:43.512Z,69.97
2022-12-31T15:13:09.911Z,70.12
2022-12-31T15:15:39.807Z,69.96
2022-12-31T15:18:06.198Z,69.66
2022-12-31T15:20:32.596Z,70.27
2022-12-31T15:22:59.136Z,71.34
2022-12-31T15:25:25.503Z,71.01
2022-12-31T15:27:51.895Z,71.65
2022-12-31T15:30:18.307Z,71.67
2022-12-31T15:32:44.911Z,71.43
2022-12-31T15:35:11.348Z,71.52
2022-12-31T15:37:37.829Z,71.30
2022-12-31T15:40:04.244Z,71.68
2022-12-31T15:42:39.978Z,71.00
2022-12-31T15:45:07.847Z,71.72
2022-12-31T15:47:34.368Z,72.36
2022-12-31T15:50:00.860Z,72.02
2022-12-31T15:52:27.273Z,72.03
2022-12-31T15:54:53.634Z,72.70
2022-12-31T15:57:20.938Z,72.65
2022-12-31T15:59:47.285Z,72.94
2022-12-31T16:02:13.742Z,72.77
2022-12-31T16:04:40.198Z,73.12
2022-12-31T16:07:06.557Z,73.62
2022-12-31T16:09:32.904Z,73.56
2022-12-31T16:11:59.651Z,73.36
2022-12-31T16:14:25.993Z,73.04
2022-12-31T16:16:52.364Z,73.44
2022-12-31T16:19:20.851Z,72.75
2022-12-31T16:21:47.211Z,72.59
2022-12-31T16:24:13.566Z,72.53
2022-12-31T16:26:39.969Z,73.55
2022-12-31T16:29:06.365Z,73.42
2022-12-31T16:31:32.828Z,73.12
2022-12-31T16:34:00.307Z,72.69
2022-12-31T16:36:26.700Z,73.17
2022-12-31T16:38:53.092Z,73.64
2022-12-31T16:41:20.501Z,73.79
2022-12-31T16:43:46.842Z,74.03
2022-12-31T16:46:13.195Z,74.19
2022-12-31T16:48:39.599Z,74.12
2022-12-31T16:51:06.072Z,73.89
2022-12-31T16:53:32.424Z,73.99
2022-12-31T16:55:58.820Z,74.07
2022-12-31T16:58:25.370Z,73.41
2022-12-31T17:00:51.721Z,73.87
2022-12-31T17:03:18.193Z,74.10
2022-12-31T17:05:44.645Z,73.85
2022-12-31T17:08:10.985Z,73.67
2022-12-31T17:10:37.326Z,73.52
2022-12-31T17:15:50.178Z,74.75
2022-12-31T17:18:16.831Z,74.21
2022-12-31T17:20:43.234Z,75.10
2022-12-31T17:23:10.664Z,75.29
2022-12-31T17:25:37.378Z,75.71
2022-12-31T17:28:03.885Z,75.32
2022-12-31T17:30:30.500Z,74.54
2022-12-31T17:32:58.025Z,73.83
2022-12-31T17:35:24.402Z,74.48
2022-12-31T17:37:50.790Z,75.13
2022-12-31T17:40:49.995Z,74.77
2022-12-31T17:43:03.672Z,75.21
2022-12-31T17:45:32.063Z,74.68
2022-12-31T17:47:58.434Z,74.52
2022-12-31T17:50:24.803Z,75.18
2022-12-31T17:52:51.165Z,75.39
2022-12-31T17:55:17.556Z,75.87
2022-12-31T17:57:43.905Z,74.76
2022-12-31T18:00:10.597Z,74.97
2022-12-31T18:02:37.054Z,74.80
2022-12-31T18:05:03.559Z,74.65
2022-12-31T18:07:29.964Z,74.67
2022-12-31T18:09:56.678Z,75.06
2022-12-31T18:12:23.053Z,75.15
2022-12-31T18:14:49.458Z,73.68
2022-12-31T18:17:16.187Z,74.57
2022-12-31T18:22:29.043Z,75.80
2022-12-31T18:24:55.732Z,75.73
2022-12-31T18:27:22.139Z,75.75
2022-12-31T18:29:48.520Z,76.27
2022-12-31T18:32:17.307Z,76.09
2022-12-31T18:34:43.771Z,75.68
2022-12-31T18:37:10.178Z,75.54
2022-12-31T18:39:36.537Z,75.56
2022-12-31T18:42:03.016Z,75.36
2022-12-31T18:44:29.397Z,76.11
2022-12-31T18:46:55.824Z,75.03
2022-12-31T18:49:22.175Z,75.44
2022-12-31T18:51:48.556Z,75.81
2022-12-31T18:54:14.895Z,75.51
2022-12-31T18:56:46.694Z,75.96
2022-12-31T18:59:14.782Z,76.12
2022-12-31T19:01:41.188Z,76.50
2022-12-31T19:04:07.599Z,76.87
2022-12-31T19:06:33.978Z,76.91
2022-12-31T19:09:01.169Z,77.42
2022-12-31T19:11:27.731Z,77.01
2022-12-31T19:13:54.406Z,78.24
2022-12-31T19:16:20.856Z,78.21
2022-12-31T19:18:47.567Z,78.02
2022-12-31T19:21:13.985Z,77.84
2022-12-31T19:23:40.481Z,77.28
2022-12-31T19:26:07.043Z,77.58
2022-12-31T19:28:33.844Z,76.88
2022-12-31T19:31:00.397Z,76.76
2022-12-31T19:33:26.783Z,76.99
2022-12-31T19:35:53.237Z,76.53
2022-12-31T19:38:19.702Z,77.03
2022-12-31T19:40:46.066Z,76.11
2022-12-31T19:43:12.419Z,75.73
2022-12-31T19:45:38.917Z,76.05
2022-12-31T19:48:05.459Z,76.70
2022-12-31T19:50:31.807Z,76.56
2022-12-31T19:52:58.157Z,76.74
2022-12-31T19:55:24.519Z,76.28
2022-12-31T19:57:53.378Z,76.79
2022-12-31T20:00:19.709Z,77.00
2022-12-31T20:02:46.205Z,76.62
2022-12-31T20:05:12.706Z,77.36
2022-12-31T20:07:39.098Z,77.09
2022-12-31T20:10:05.444Z,76.96
2022-12-31T20:12:31.855Z,77.53
2022-12-31T20:14:58.211Z,78.01
2022-12-31T20:17:24.665Z,77.94
2022-12-31T20:19:51.117Z,78.09
2022-12-31T20:22:17.640Z,78.36
2022-12-31T20:24:44.072Z,78.11
2022-12-31T20:27:15.007Z,78.37
2022-12-31T20:29:44.714Z,78.15
2022-12-31T20:32:11.095Z,78.57
2022-12-31T20:34:37.472Z,78.13
2022-12-31T20:37:03.849Z,77.68
2022-12-31T20:39:30.372Z,78.05
2022-12-31T20:41:56.974Z,77.61
2022-12-31T20:44:23.335Z,77.79
2022-12-31T20:46:49.784Z,77.58
2022-12-31T20:49:16.213Z,77.86
2022-12-31T20:51:46.200Z,77.79
2022-12-31T20:54:16.905Z,76.95
2022-12-31T20:56:43.253Z,77.30
2022-12-31T20:59:09.610Z,77.86
2022-12-31T21:02:11.197Z,77.47
2022-12-31T21:04:22.535Z,78.39
2022-12-31T21:06:49.124Z,78.70
2022-12-31T21:09:15.517Z,78.36
2022-12-31T21:11:41.896Z,77.88
2022-12-31T21:14:08.500Z,77.64
2022-12-31T21:16:35.999Z,77.61
2022-12-31T21:19:03.499Z,78.37
2022-12-31T21:21:29.940Z,77.97
2022-12-31T21:23:57.003Z,77.06
2022-12-31T21:26:23.495Z,76.97
2022-12-31T21:28:50.040Z,77.21
2022-12-31T21:31:16.402Z,76.59
2022-12-31T21:33:45.113Z,76.87
2022-12-31T21:36:13.577Z,77.36
2022-12-31T21:38:40.228Z,77.38
2022-12-31T21:41:07.009Z,77.24
2022-12-31T21:43:33.485Z,76.92
2022-12-31T21:46:00.941Z,76.90
2022-12-31T21:48:30.476Z,76.84
2022-12-31T21:50:56.885Z,77.54
2022-12-31T21:53:31.909Z,77.23
2022-12-31T21:56:02.592Z,76.59
2022-12-31T21:58:29.949Z,76.58
2022-12-31T22:00:57.471Z,77.07
2022-12-31T22:03:25.919Z,77.07
2022-12-31T22:05:52.368Z,77.24
2022-12-31T22:08:19.236Z,77.41
2022-12-31T22:10:52.119Z,77.44
2022-12-31T22:13:19.363Z,77.39
2022-12-31T22:15:48.340Z,77.57
2022-12-31T22:18:14.824Z,77.16
2022-12-31T22:20:41.334Z,77.88
2022-12-31T22:23:07.690Z,78.07
2022-12-31T22:25:34.095Z,76.58
2022-12-31T22:30:49.683Z,77.44
2022-12-31T22:33:16.103Z,77.35
2022-12-31T22:35:42.487Z,77.31
2022-12-31T22:38:12.068Z,77.47
2022-12-31T22:40:38.855Z,78.81
2022-12-31T22:43:05.780Z,77.72
2022-12-31T22:45:32.352Z,77.90
2022-12-31T22:47:58.798Z,77.40
2022-12-31T22:50:25.163Z,77.27
2022-12-31T22:52:54.660Z,77.51
2022-12-31T22:55:22.102Z,77.64
2022-12-31T22:57:50.857Z,77.76
2022-12-31T23:00:17.246Z,77.31
2022-12-31T23:02:44.177Z,77.16
2022-12-31T23:05:15.816Z,77.71
2022-12-31T23:07:45.155Z,78.48
2022-12-31T23:10:11.751Z,75.94
2022-12-31T23:12:38.137Z,76.88
2022-12-31T23:15:04.475Z,76.77
2022-12-31T23:17:32.159Z,76.95
2022-12-31T23:19:58.704Z,77.09
2022-12-31T23:22:25.294Z,77.88
2022-12-31T23:24:51.641Z,77.83
2022-12-31T23:27:18.050Z,78.24
2022-12-31T23:29:47.486Z,78.34
2022-12-31T23:32:14.171Z,78.45
2022-12-31T23:34:40.529Z,78.05
2022-12-31T23:37:07.104Z,77.96
2022-12-31T23:39:33.522Z,77.28
2022-12-31T23:41:59.912Z,76.75
2022-12-31T23:44:27.379Z,77.98
2022-12-31T23:46:53.846Z,78.24
2022-12-31T23:49:20.211Z,78.22
2022-12-31T23:51:46.556Z,78.08
2022-12-31T23:54:15.391Z,77.56
2022-12-31T23:56:41.825Z,77.89
2022-12-31T23:59:08.244Z,78.82
